Time;durP1;ratioP1;P1;durP2;ratioP2;P2;SDS_P1;SDS_P2;PMS_P1;PMS_P2;Temp;Humidity;BMP_temperature;BMP_pressure;BME280_temperature;BME280_humidity;BME280_pressure;Samples;Min_cycle;Max_cycle;Signal;HPM_P1;HPM_P2
2023/06/17 00:00:35;;;;;;;17.02;10.95;;;;;;;-142.57;69.46;115900.28;5006836;28;20054;-77
2023/06/17 00:03:01;;;;;;;16.60;10.13;;;;;;;-142.57;70.84;115900.28;5031755;28;20018;-84
2023/06/17 00:05:27;;;;;;;15.45;8.50;;;;;;;-142.57;70.07;115900.28;5034888;28;20460;-83
2023/06/17 00:07:52;;;;;;;13.55;8.43;;;;;;;-142.57;70.66;115900.28;5022798;28;20040;-84
2023/06/17 00:10:18;;;;;;;15.20;8.40;;;;;;;-142.57;70.16;115900.28;5015224;28;20133;-84
2023/06/17 00:12:44;;;;;;;10.43;7.55;;;;;;;-142.57;69.78;115900.28;5015836;28;20041;-83
2023/06/17 00:15:10;;;;;;;17.67;8.05;;;;;;;-142.57;69.84;115900.28;5015443;28;20050;-82
2023/06/17 00:17:36;;;;;;;12.13;7.43;;;;;;;-142.57;69.88;115900.28;5015974;28;20088;-84
2023/06/17 00:20:11;;;;;;;13.45;7.47;;;;;;;-142.57;69.76;115900.28;5015409;28;20049;-84
2023/06/17 00:22:39;;;;;;;14.38;7.80;;;;;;;-142.57;69.50;115900.28;4997805;28;20109;-85
2023/06/17 00:25:06;;;;;;;15.82;7.95;;;;;;;-142.57;69.58;115900.28;5014938;28;20119;-84
2023/06/17 00:27:32;;;;;;;10.50;8.10;;;;;;;-142.57;70.13;115900.28;4996850;28;20028;-87
2023/06/17 00:29:59;;;;;;;14.25;8.30;;;;;;;-142.57;70.10;115900.28;5014669;28;20030;-86
2023/06/17 00:32:30;;;;;;;15.05;8.25;;;;;;;-142.57;70.56;115900.28;5014691;28;20100;-85
2023/06/17 00:34:55;;;;;;;13.63;8.07;;;;;;;-142.57;69.45;115900.28;4996970;28;20482;-85
2023/06/17 00:37:24;;;;;;;20.67;9.10;;;;;;;-142.57;69.14;115900.28;5009035;28;20052;-86
2023/06/17 00:39:50;;;;;;;11.80;8.20;;;;;;;-142.57;69.55;115900.28;5011158;28;20112;-85
2023/06/17 00:42:16;;;;;;;12.50;8.68;;;;;;;-142.57;70.65;115900.28;5014809;28;20048;-86
2023/06/17 00:44:41;;;;;;;15.40;8.80;;;;;;;-142.57;71.42;115900.28;4996651;28;20042;-83
2023/06/17 00:47:12;;;;;;;12.10;8.00;;;;;;;-142.57;70.33;115900.28;4995598;28;20030;-83
2023/06/17 00:49:42;;;;;;;11.75;8.32;;;;;;;-142.57;69.33;115900.28;4996503;28;20034;-83
2023/06/17 00:52:09;;;;;;;14.85;8.07;;;;;;;-142.57;67.54;115900.28;5014292;28;20038;-84
2023/06/17 00:54:41;;;;;;;18.30;8.50;;;;;;;-142.57;67.52;115900.28;5014983;28;20111;-85
2023/06/17 00:57:13;;;;;;;12.93;8.13;;;;;;;-142.57;67.08;115900.28;4996448;28;20030;-86
2023/06/17 00:59:40;;;;;;;12.70;8.45;;;;;;;-142.57;67.83;115900.28;5014521;28;20033;-84
2023/06/17 01:02:09;;;;;;;16.55;7.85;;;;;;;-142.57;67.06;115900.28;4996792;28;20053;-84
2023/06/17 01:04:42;;;;;;;13.70;8.18;;;;;;;-142.57;67.30;115900.28;5013869;28;20044;-83
2023/06/17 01:07:46;;;;;;;14.25;7.38;;;;;;;-142.57;67.85;115900.28;5013683;28;20136;-85
2023/06/17 01:10:34;;;;;;;10.20;7.50;;;;;;;-142.57;67.44;115900.28;4996847;28;20101;-83
2023/06/17 01:13:03;;;;;;;9.85;7.32;;;;;;;-142.57;67.21;115900.28;4996232;28;20041;-84
2023/06/17 01:15:33;;;;;;;19.83;8.55;;;;;;;-142.57;65.94;115900.28;4998097;28;20021;-81
2023/06/17 01:18:00;;;;;;;16.25;7.80;;;;;;;-142.57;66.49;115900.28;5002046;28;20068;-82
2023/06/17 01:20:28;;;;;;;10.70;7.65;;;;;;;-142.57;66.49;115900.28;5018383;28;20034;-82
2023/06/17 01:22:56;;;;;;;11.43;7.50;;;;;;;-142.57;65.57;115900.28;5015671;28;20387;-83
2023/06/17 01:25:29;;;;;;;19.42;8.48;;;;;;;-142.57;66.50;115900.28;4995880;28;20527;-85
2023/06/17 01:28:00;;;;;;;13.57;8.60;;;;;;;-142.57;67.64;115900.28;5014193;28;20089;-84
2023/06/17 01:30:29;;;;;;;14.68;9.20;;;;;;;-142.57;68.99;115900.28;4979706;28;20033;-82
2023/06/17 01:32:59;;;;;;;19.50;9.57;;;;;;;-142.57;68.62;115900.28;5014028;28;20103;-85
2023/06/17 01:35:31;;;;;;;14.68;8.27;;;;;;;-142.57;68.43;115900.28;5014187;28;20032;-82
2023/06/17 01:38:15;;;;;;;16.13;9.25;;;;;;;-142.57;68.60;115900.28;5011907;28;20438;-85
2023/06/17 01:40:43;;;;;;;17.27;8.35;;;;;;;-142.57;69.19;115900.28;5014206;28;20061;-88
2023/06/17 01:43:11;;;;;;;16.10;9.10;;;;;;;-142.57;69.40;115900.28;4997152;28;20041;-89
2023/06/17 01:45:38;;;;;;;15.38;9.43;;;;;;;-142.57;68.83;115900.28;5015494;28;20130;-87
2023/06/17 01:48:04;;;;;;;15.27;9.77;;;;;;;-142.57;69.18;115900.28;4981337;28;20038;-89
2023/06/17 01:50:30;;;;;;;11.93;9.07;;;;;;;-142.57;69.21;115900.28;5016735;28;20088;-87
2023/06/17 01:52:56;;;;;;;19.17;9.45;;;;;;;-142.57;68.94;115900.28;4997855;28;20073;-87
2023/06/17 01:55:22;;;;;;;17.88;9.98;;;;;;;-142.57;70.52;115900.28;5017077;28;20061;-91
2023/06/17 01:57:48;;;;;;;15.82;8.93;;;;;;;-142.57;70.47;115900.28;4997022;28;20498;-83
2023/06/17 02:00:14;;;;;;;16.52;10.35;;;;;;;-142.57;70.22;115900.28;5002273;28;20423;-86
2023/06/17 02:02:53;;;;;;;13.05;9.15;;;;;;;-142.57;70.37;115900.28;5017606;28;20382;-84
2023/06/17 02:05:20;;;;;;;14.98;8.95;;;;;;;-142.57;69.87;115900.28;4999758;28;20474;-84
2023/06/17 02:07:45;;;;;;;14.65;8.90;;;;;;;-142.57;69.04;115900.28;5000728;28;20070;-83
2023/06/17 02:10:12;;;;;;;17.90;10.35;;;;;;;-142.57;70.24;115900.28;5019154;28;20129;-83
2023/06/17 02:12:37;;;;;;;14.73;9.95;;;;;;;-142.57;72.02;115900.28;4999441;28;20153;-85
2023/06/17 02:15:03;;;;;;;13.30;9.70;;;;;;;-142.57;71.10;115900.28;4998736;28;20026;-88
2023/06/17 02:17:29;;;;;;;20.88;10.65;;;;;;;-142.57;73.18;115900.28;5000115;28;20057;-85
2023/06/17 02:19:56;;;;;;;39.58;12.05;;;;;;;-142.57;76.38;115900.28;5017998;28;20041;-87
2023/06/17 02:22:22;;;;;;;16.95;11.75;;;;;;;-142.57;77.48;115900.28;5000396;28;20038;-87
2023/06/17 02:24:47;;;;;;;21.52;13.07;;;;;;;-142.57;79.96;115900.28;5018887;28;20038;-86
2023/06/17 02:27:13;;;;;;;15.73;11.85;;;;;;;-142.57;80.96;115900.28;5001314;28;20382;-88
2023/06/17 02:29:38;;;;;;;16.33;11.20;;;;;;;-142.57;81.76;115900.28;5020418;28;20045;-85
2023/06/17 02:32:07;;;;;;;16.05;11.05;;;;;;;-142.57;81.88;115900.28;5019664;28;20068;-83
2023/06/17 02:34:33;;;;;;;16.08;10.73;;;;;;;-142.57;80.42;115900.28;5002928;28;20490;-87
2023/06/17 02:36:59;;;;;;;17.35;11.23;;;;;;;-142.57;80.29;115900.28;5001760;28;20049;-83
2023/06/17 02:39:26;;;;;;;17.35;11.60;;;;;;;-142.57;81.44;115900.28;5002266;28;20046;-85
2023/06/17 02:41:53;;;;;;;22.52;11.30;;;;;;;-142.57;81.39;115900.28;5019982;28;20428;-87
2023/06/17 02:44:18;;;;;;;14.50;11.55;;;;;;;-142.57;81.34;115900.28;5021246;28;20040;-87
2023/06/17 02:46:44;;;;;;;19.55;11.63;;;;;;;-142.57;81.29;115900.28;5002516;28;20041;-87
2023/06/17 02:49:10;;;;;;;20.15;11.32;;;;;;;-142.57;81.59;115900.28;5001363;28;20496;-86
2023/06/17 02:51:36;;;;;;;15.23;11.60;;;;;;;-142.57;81.02;115900.28;5001927;28;20100;-86
2023/06/17 02:54:02;;;;;;;25.55;13.90;;;;;;;-142.57;85.95;115900.28;5016931;28;20046;-86
2023/06/17 02:56:30;;;;;;;26.17;15.30;;;;;;;-142.57;89.77;115900.28;5019381;28;20096;-86
2023/06/17 02:58:58;;;;;;;20.55;11.88;;;;;;;-142.57;89.06;115900.28;5016742;28;20058;-86
2023/06/17 03:01:23;;;;;;;17.17;11.07;;;;;;;-142.57;87.88;115900.28;5001700;28;20464;-88
2023/06/17 03:03:49;;;;;;;20.10;12.65;;;;;;;-142.57;89.00;115900.28;5016520;28;20168;-85
2023/06/17 03:06:15;;;;;;;17.40;11.43;;;;;;;-142.57;88.63;115900.28;5015033;28;20041;-86
2023/06/17 03:08:43;;;;;;;13.88;9.98;;;;;;;-142.57;87.33;115900.28;4995953;28;20038;-89
2023/06/17 03:11:09;;;;;;;14.93;10.55;;;;;;;-142.57;85.09;115900.28;4996018;28;20038;-88
2023/06/17 03:13:36;;;;;;;11.27;8.80;;;;;;;-142.57;84.97;115900.28;5017716;28;20595;-86
2023/06/17 03:16:06;;;;;;;14.18;8.95;;;;;;;-142.57;84.36;115900.28;4985682;28;20029;-85
2023/06/17 03:18:33;;;;;;;15.55;10.05;;;;;;;-142.57;85.20;115900.28;4998094;28;20061;-85
2023/06/17 03:20:59;;;;;;;12.95;9.80;;;;;;;-142.57;86.27;115900.28;5014617;28;20038;-85
2023/06/17 03:23:24;;;;;;;14.40;9.65;;;;;;;-142.57;86.51;115900.28;4997080;28;20487;-88
2023/06/17 03:25:51;;;;;;;16.83;9.35;;;;;;;-142.57;86.33;115900.28;4997086;28;20034;-88
2023/06/17 03:28:18;;;;;;;16.33;9.60;;;;;;;-142.57;85.76;115900.28;4996873;28;20097;-87
2023/06/17 03:30:45;;;;;;;18.17;9.18;;;;;;;-142.57;84.63;115900.28;5014154;28;20042;-85
2023/06/17 03:33:12;;;;;;;12.48;8.60;;;;;;;-142.57;82.86;115900.28;4997833;28;20427;-87
2023/06/17 03:35:38;;;;;;;13.55;8.35;;;;;;;-142.57;81.80;115900.28;4997649;28;20515;-85
2023/06/17 03:38:04;;;;;;;15.88;8.02;;;;;;;-142.57;82.70;115900.28;4996542;28;20030;-86
2023/06/17 03:40:30;;;;;;;9.90;7.57;;;;;;;-142.57;84.87;115900.28;5003062;28;20096;-86
2023/06/17 03:42:57;;;;;;;16.17;8.82;;;;;;;-142.57;84.69;115900.28;4977643;28;20042;-87
2023/06/17 03:45:23;;;;;;;16.60;8.77;;;;;;;-142.57;84.97;115900.28;4994866;28;20042;-88
2023/06/17 03:47:51;;;;;;;18.75;8.70;;;;;;;-142.57;83.66;115900.28;4977941;28;20062;-84
2023/06/17 03:50:16;;;;;;;14.63;8.63;;;;;;;-142.57;83.65;115900.28;4993635;28;20181;-86
2023/06/17 03:52:42;;;;;;;13.20;8.27;;;;;;;-142.57;83.91;115900.28;4997291;28;20026;-84
2023/06/17 03:55:08;;;;;;;12.07;8.70;;;;;;;-142.57;83.63;115900.28;4996765;28;20383;-87
2023/06/17 03:57:35;;;;;;;11.68;8.85;;;;;;;-142.57;85.18;115900.28;4995995;28;20041;-84
2023/06/17 04:00:01;;;;;;;12.43;9.05;;;;;;;-142.57;84.65;115900.28;4995710;28;20112;-87
2023/06/17 04:02:28;;;;;;;17.35;8.90;;;;;;;-142.57;83.68;115900.28;5012669;28;20085;-86
2023/06/17 04:04:54;;;;;;;11.48;8.45;;;;;;;-142.57;82.60;115900.28;4996373;28;20049;-85
2023/06/17 04:07:21;;;;;;;17.30;9.30;;;;;;;-142.57;83.80;115900.28;4995898;28;20040;-87
2023/06/17 04:09:46;;;;;;;16.90;9.25;;;;;;;-142.57;86.26;115900.28;4996857;28;20092;-87
2023/06/17 04:12:12;;;;;;;12.23;8.15;;;;;;;-142.57;86.28;115900.28;4996200;28;20026;-84
2023/06/17 04:14:37;;;;;;;16.73;8.15;;;;;;;-142.57;84.89;115900.28;4996291;28;20096;-86
2023/06/17 04:17:03;;;;;;;13.30;8.68;;;;;;;-142.57;86.40;115900.28;4996490;28;20376;-85
2023/06/17 04:19:31;;;;;;;14.18;8.48;;;;;;;-142.57;86.52;115900.28;4996567;28;20034;-86
2023/06/17 04:21:57;;;;;;;13.43;7.93;;;;;;;-142.57;87.03;115900.28;4996166;28;20380;-85
2023/06/17 04:24:23;;;;;;;11.13;8.43;;;;;;;-142.57;87.87;115900.28;4980814;28;20045;-86
2023/06/17 04:26:52;;;;;;;13.02;8.80;;;;;;;-142.57;88.50;115900.28;4996874;28;20041;-87
2023/06/17 04:29:18;;;;;;;17.30;9.50;;;;;;;-142.57;87.52;115900.28;4996560;28;20034;-86
2023/06/17 04:31:46;;;;;;;12.68;8.43;;;;;;;-142.57;87.32;115900.28;5013695;28;20040;-86
2023/06/17 04:34:21;;;;;;;18.58;8.70;;;;;;;-142.57;85.78;115900.28;4996899;28;20058;-87
2023/06/17 04:36:56;;;;;;;17.25;9.63;;;;;;;-142.57;85.54;115900.28;4980281;28;20402;-85
2023/06/17 04:39:26;;;;;;;18.90;9.55;;;;;;;-142.57;84.71;115900.28;4996261;28;20041;-87
2023/06/17 04:41:51;;;;;;;20.23;9.40;;;;;;;-142.57;85.41;115900.28;4996611;28;20030;-86
2023/06/17 04:44:17;;;;;;;14.80;8.80;;;;;;;-142.57;86.31;115900.28;4996055;28;20506;-86
2023/06/17 04:46:43;;;;;;;15.02;10.80;;;;;;;-142.57;86.83;115900.28;4997051;28;20030;-87
2023/06/17 04:49:10;;;;;;;18.27;11.40;;;;;;;-142.57;88.22;115900.28;4996259;28;20038;-84
2023/06/17 04:51:40;;;;;;;17.65;12.48;;;;;;;-142.57;88.42;115900.28;5013367;28;20061;-86
2023/06/17 04:54:06;;;;;;;25.40;15.25;;;;;;;-142.57;91.19;115900.28;4980106;28;20061;-85
2023/06/17 04:56:32;;;;;;;26.05;16.92;;;;;;;-142.57;92.35;115900.28;4996372;28;20026;-85
2023/06/17 04:58:58;;;;;;;26.25;16.63;;;;;;;-142.57;92.52;115900.28;5014766;28;20088;-86
2023/06/17 05:01:24;;;;;;;28.42;17.95;;;;;;;-142.57;95.98;115900.28;4992527;28;20053;-86
2023/06/17 05:03:49;;;;;;;29.92;18.15;;;;;;;-142.57;97.23;115900.28;5033526;28;20076;-88
2023/06/17 05:06:15;;;;;;;23.13;17.33;;;;;;;-142.57;97.67;115900.28;5000754;28;20042;-88
2023/06/17 05:08:41;;;;;;;34.70;18.55;;;;;;;-142.57;96.95;115900.28;5014079;28;20057;-85
2023/06/17 05:11:07;;;;;;;25.30;16.38;;;;;;;-142.57;97.98;115900.28;5003973;28;20434;-85
2023/06/17 05:13:39;;;;;;;23.23;16.75;;;;;;;-142.57;98.85;115900.28;5005648;28;20414;-85
2023/06/17 05:16:05;;;;;;;24.75;16.42;;;;;;;-142.57;99.63;115900.28;5021639;28;20041;-88
2023/06/17 05:18:42;;;;;;;29.77;16.88;;;;;;;-142.57;99.84;115900.28;5021240;28;20041;-89
2023/06/17 05:21:07;;;;;;;28.08;17.15;;;;;;;-142.57;99.58;115900.28;5018702;28;20045;-88
2023/06/17 05:23:33;;;;;;;25.35;18.35;;;;;;;-142.57;100.00;115900.28;4986748;28;20038;-85
2023/06/17 05:26:00;;;;;;;29.67;18.42;;;;;;;-142.57;100.00;115900.28;4997336;23;20100;-86
2023/06/17 05:28:25;;;;;;;24.05;17.33;;;;;;;-142.57;100.00;115900.28;4982991;28;20479;-87
2023/06/17 05:30:51;;;;;;;32.95;18.02;;;;;;;-142.57;100.00;115900.28;4997802;28;20129;-88
2023/06/17 05:33:19;;;;;;;26.67;17.35;;;;;;;-142.57;98.83;115900.28;4979415;28;20041;-88
2023/06/17 05:35:46;;;;;;;22.95;16.15;;;;;;;-142.57;96.34;115900.28;4965470;28;20061;-88
2023/06/17 05:38:11;;;;;;;24.50;16.65;;;;;;;-142.57;97.22;115900.28;4984054;28;20042;-88
2023/06/17 05:40:37;;;;;;;27.60;17.45;;;;;;;-142.57;96.34;115900.28;4974409;28;20607;-88
2023/06/17 05:43:03;;;;;;;29.33;16.50;;;;;;;-142.57;95.63;115900.28;4966369;28;20038;-87
2023/06/17 05:45:37;;;;;;;34.90;16.20;;;;;;;-142.57;95.39;115900.28;4994851;28;20042;-87
2023/06/17 05:48:03;;;;;;;22.57;16.30;;;;;;;-142.57;94.24;115900.28;4994571;28;20423;-84
2023/06/17 05:50:32;;;;;;;31.10;16.15;;;;;;;-142.57;93.15;115900.28;4988129;28;20038;-89
2023/06/17 05:53:00;;;;;;;24.35;14.30;;;;;;;-142.57;88.65;115900.28;4976602;28;20046;-89
2023/06/17 05:55:29;;;;;;;30.67;14.32;;;;;;;-142.57;87.95;115900.28;4965084;28;20106;-89
2023/06/17 05:57:54;;;;;;;24.58;13.63;;;;;;;-142.57;87.52;115900.28;4964619;28;20070;-87
2023/06/17 06:00:22;;;;;;;23.27;13.90;;;;;;;-142.57;87.33;115900.28;4965910;28;20484;-91
2023/06/17 06:02:49;;;;;;;22.13;14.05;;;;;;;-142.57;86.92;115900.28;4972637;28;20038;-79
2023/06/17 06:05:14;;;;;;;22.67;14.63;;;;;;;-142.57;88.11;115900.28;4999719;28;20030;-81
2023/06/17 06:07:41;;;;;;;19.88;13.55;;;;;;;-142.57;85.06;115900.28;4966639;28;20039;-86
2023/06/17 06:10:13;;;;;;;18.55;13.07;;;;;;;-142.57;86.55;115900.28;4983830;28;20098;-85
2023/06/17 06:12:43;;;;;;;27.50;13.82;;;;;;;-142.57;87.25;115900.28;4989511;28;20054;-83
2023/06/17 06:15:16;;;;;;;19.77;13.63;;;;;;;-142.57;84.36;115900.28;4954792;28;20496;-80
2023/06/17 06:17:44;;;;;;;;;;;;;;;-142.57;81.67;115900.28;4967223;28;20129;-80
2023/06/17 06:20:12;;;;;;;22.55;12.45;;;;;;;-142.57;76.59;115900.28;4986364;28;19997;-81
2023/06/17 06:22:38;;;;;;;19.92;14.23;;;;;;;-142.57;76.08;115900.28;4985041;28;20042;-78
2023/06/17 06:25:06;;;;;;;20.60;13.57;;;;;;;-142.57;74.22;115900.28;4984678;28;20074;-80
2023/06/17 06:27:32;;;;;;;23.05;14.20;;;;;;;-142.57;67.81;115900.28;4989087;28;20061;-82
2023/06/17 06:29:58;;;;;;;20.40;13.60;;;;;;;-142.57;68.28;115900.28;4988288;28;20026;-81
2023/06/17 06:32:26;;;;;;;20.45;14.15;;;;;;;-142.57;66.39;115900.28;4976293;28;20110;-79
2023/06/17 06:34:53;;;;;;;23.65;13.30;;;;;;;-142.57;65.64;115900.28;4990438;28;20049;-80
2023/06/17 06:37:23;;;;;;;23.65;13.38;;;;;;;-142.57;63.41;115900.28;4999136;23;20070;-79
2023/06/17 06:39:49;;;;;;;25.85;13.50;;;;;;;-142.57;61.63;115900.28;5005885;28;20035;-77
2023/06/17 06:42:17;;;;;;;25.38;13.82;;;;;;;-142.57;60.59;115900.28;5008709;28;20092;-80
2023/06/17 06:45:15;;;;;;;20.10;13.85;;;;;;;-142.57;60.66;115900.28;5021530;22;20085;-83
2023/06/17 06:47:43;;;;;;;22.88;12.85;;;;;;;-142.57;59.12;115900.28;4979220;28;20031;-79
2023/06/17 06:50:09;;;;;;;18.45;14.05;;;;;;;-142.57;56.52;115900.28;4971615;28;20065;-78
2023/06/17 06:52:35;;;;;;;23.35;12.60;;;;;;;-142.57;55.79;115900.28;5007647;28;20057;-78
2023/06/17 06:55:02;;;;;;;17.83;12.27;;;;;;;-142.57;58.89;115900.28;5008649;28;20045;-80
2023/06/17 06:57:28;;;;;;;19.35;12.05;;;;;;;-142.57;56.90;115900.28;5007448;28;20400;-79
2023/06/17 06:59:54;;;;;;;15.95;11.60;;;;;;;-142.57;55.87;115900.28;5011284;28;20037;-80
2023/06/17 07:02:29;;;;;;;18.05;11.02;;;;;;;-142.57;54.10;115900.28;5017818;23;20097;-80
2023/06/17 07:05:14;;;;;;;19.35;11.45;;;;;;;-142.57;53.39;115900.28;5028886;28;20436;-78
2023/06/17 07:07:52;;;;;;;19.20;10.85;;;;;;;-142.57;53.56;115900.28;5073832;23;20084;-79
2023/06/17 07:10:54;;;;;;;16.05;11.75;;;;;;;-142.57;52.73;115900.28;5046612;28;20087;-81
2023/06/17 07:13:20;;;;;;;18.30;11.35;;;;;;;-142.57;48.97;115900.28;5034611;28;20041;-78
2023/06/17 07:15:47;;;;;;;24.35;11.63;;;;;;;-142.57;48.13;115900.28;5026033;28;20034;-79
2023/06/17 07:18:13;;;;;;;16.05;10.38;;;;;;;-142.57;48.47;115900.28;5024858;28;20037;-78
2023/06/17 07:20:47;;;;;;;18.67;10.68;;;;;;;-142.57;46.13;115900.28;5026872;28;20037;-79
2023/06/17 07:23:44;;;;;;;17.33;9.57;;;;;;;-142.57;47.92;115900.28;5026403;28;20096;-79
2023/06/17 07:26:14;;;;;;;12.18;8.43;;;;;;;-142.57;42.93;115900.28;5033708;28;20053;-80
2023/06/17 07:28:41;;;;;;;12.05;7.90;;;;;;;-142.57;46.15;115900.28;5017643;28;20066;-81
2023/06/17 07:31:08;;;;;;;14.48;8.23;;;;;;;-142.57;45.44;115900.28;5021951;28;20057;-80
2023/06/17 07:33:33;;;;;;;13.10;8.60;;;;;;;-142.57;45.18;115900.28;5020284;28;20056;-84
2023/06/17 07:35:59;;;;;;;10.13;8.20;;;;;;;-142.57;42.58;115900.28;5030607;28;20550;-84
2023/06/17 07:38:25;;;;;;;12.10;8.35;;;;;;;-142.57;40.32;115900.28;5023326;28;20026;-82
2023/06/17 07:40:51;;;;;;;14.13;7.25;;;;;;;-142.57;42.52;115900.28;5022341;28;20087;-80
2023/06/17 07:43:16;;;;;;;13.90;8.63;;;;;;;-142.57;41.50;115900.28;5040251;28;20457;-81
2023/06/17 07:45:42;;;;;;;12.73;8.70;;;;;;;-142.57;43.86;115900.28;5040786;28;20037;-80
2023/06/17 07:48:18;;;;;;;15.18;8.07;;;;;;;-142.57;42.34;115900.28;5013130;28;20050;-79
2023/06/17 07:50:44;;;;;;;17.05;7.68;;;;;;;-142.57;44.95;115900.28;5003500;28;20088;-81
2023/06/17 07:53:09;;;;;;;11.15;7.53;;;;;;;-142.57;44.56;115900.28;5022933;28;20044;-82
2023/06/17 07:55:35;;;;;;;13.38;6.70;;;;;;;-142.57;43.92;115900.28;5021639;28;20109;-82
2023/06/17 07:58:01;;;;;;;13.82;7.32;;;;;;;-142.57;40.41;115900.28;5019831;28;20077;-80
2023/06/17 08:00:27;;;;;;;9.75;5.82;;;;;;;-142.57;39.75;115900.28;5018503;28;20418;-80
2023/06/17 08:02:54;;;;;;;14.95;7.40;;;;;;;-142.57;38.62;115900.28;5019294;28;20394;-79
2023/06/17 08:05:21;;;;;;;9.93;7.32;;;;;;;-142.57;38.19;115900.28;5019461;28;20030;-86
2023/06/17 08:07:46;;;;;;;10.88;6.82;;;;;;;-142.57;38.20;115900.28;5025044;28;20091;-79
2023/06/17 08:10:12;;;;;;;8.82;7.05;;;;;;;-142.57;38.79;115900.28;5037736;28;20041;-82
2023/06/17 08:12:41;;;;;;;9.93;6.03;;;;;;;-142.57;37.02;115900.28;5022151;28;20096;-81
2023/06/17 08:15:07;;;;;;;10.85;4.97;;;;;;;-142.57;34.81;115900.28;5043874;28;20042;-80
2023/06/17 08:17:33;;;;;;;10.52;4.75;;;;;;;-142.57;35.10;115900.28;5036021;28;20033;-80
2023/06/17 08:19:59;;;;;;;9.90;5.28;;;;;;;-142.57;34.92;115900.28;5039462;28;20387;-79
2023/06/17 08:22:25;;;;;;;9.00;5.97;;;;;;;-142.57;36.05;115900.28;5036560;28;20090;-82
2023/06/17 08:24:54;;;;;;;15.23;6.70;;;;;;;-142.57;35.36;115900.28;5039334;28;20113;-81
2023/06/17 08:27:19;;;;;;;10.25;5.40;;;;;;;-142.57;34.54;115900.28;5024541;28;20056;-79
2023/06/17 08:29:49;;;;;;;9.38;6.00;;;;;;;-142.57;36.69;115900.28;5024288;28;20456;-84
2023/06/17 08:32:15;;;;;;;8.25;6.38;;;;;;;-142.57;34.02;115900.28;5020850;28;20065;-89
2023/06/17 08:34:44;;;;;;;10.75;6.45;;;;;;;-142.57;36.21;115900.28;5003422;28;20033;-86
2023/06/17 08:37:09;;;;;;;8.40;5.72;;;;;;;-142.57;34.04;115900.28;5025538;28;20028;-88
2023/06/17 08:39:39;;;;;;;13.00;5.75;;;;;;;-142.57;34.21;115900.28;5021243;28;20034;-85
2023/06/17 08:42:08;;;;;;;8.57;5.28;;;;;;;-142.57;33.50;115900.28;5020895;28;20049;-88
2023/06/17 08:44:41;;;;;;;10.65;5.88;;;;;;;-142.57;35.05;115900.28;5019032;28;20105;-82
2023/06/17 08:47:07;;;;;;;9.07;5.60;;;;;;;-142.57;35.05;115900.28;5023488;28;20034;-89
2023/06/17 08:49:33;;;;;;;9.98;6.03;;;;;;;-142.57;36.78;115900.28;5042455;28;20040;-91
2023/06/17 08:52:00;;;;;;;10.60;6.45;;;;;;;-142.57;37.04;115900.28;5046947;28;20049;-91
2023/06/17 08:54:27;;;;;;;11.68;6.93;;;;;;;-142.57;37.48;115900.28;5055882;28;20032;-89
2023/06/17 08:56:56;;;;;;;9.43;5.82;;;;;;;-142.57;38.78;115900.28;5054847;28;20045;-87
2023/06/17 08:59:22;;;;;;;9.90;5.15;;;;;;;-142.57;38.60;115900.28;5042114;28;20052;-89
2023/06/17 09:01:52;;;;;;;10.40;6.80;;;;;;;-142.57;38.56;115900.28;5042798;28;20033;-88
2023/06/17 09:04:30;;;;;;;;;;;;;;;;;;;;;
2023/06/17 09:06:57;;;;;;;10.90;6.43;;;;;;;-142.57;39.22;115900.28;5053023;23;20050;-86
2023/06/17 09:09:23;;;;;;;8.07;5.95;;;;;;;-142.57;37.99;115900.28;4999600;28;20089;-84
2023/06/17 09:11:50;;;;;;;15.30;5.57;;;;;;;-142.57;35.99;115900.28;5006251;28;20142;-84
2023/06/17 09:14:22;;;;;;;12.27;6.28;;;;;;;-142.57;34.82;115900.28;5007026;28;20030;-86
2023/06/17 09:16:50;;;;;;;13.35;5.80;;;;;;;-142.57;35.09;115900.28;5019263;28;20483;-88
2023/06/17 09:19:16;;;;;;;12.55;5.30;;;;;;;-142.57;34.73;115900.28;5000081;28;20503;-83
2023/06/17 09:21:46;;;;;;;12.05;6.30;;;;;;;-142.57;34.22;115900.28;5018825;28;20065;-89
2023/06/17 09:24:11;;;;;;;10.68;5.97;;;;;;;-142.57;34.07;115900.28;5014806;28;20042;-85
2023/06/17 09:26:42;;;;;;;10.30;6.78;;;;;;;-142.57;34.49;115900.28;5009768;28;20378;-87
2023/06/17 09:29:12;;;;;;;8.75;6.07;;;;;;;-142.57;34.26;115900.28;5017209;28;20038;-90
2023/06/17 09:31:51;;;;;;;12.57;7.40;;;;;;;-142.57;34.24;115900.28;5014013;28;20076;-87
2023/06/17 09:34:21;;;;;;;14.48;6.45;;;;;;;-142.57;34.82;115900.28;5015731;28;20411;-89
2023/06/17 09:36:53;;;;;;;9.25;6.57;;;;;;;-142.57;34.88;115900.28;5021684;28;20172;-88
2023/06/17 09:39:28;;;;;;;12.73;6.82;;;;;;;-142.57;34.38;115900.28;5067489;23;20052;-90
2023/06/17 09:42:10;;;;;;;12.90;6.03;;;;;;;-142.57;34.02;115900.28;5027030;28;20123;-88
2023/06/17 09:44:44;;;;;;;12.32;6.75;;;;;;;-142.57;34.68;115900.28;5021697;28;20502;-89
2023/06/17 09:47:10;;;;;;;16.45;6.80;;;;;;;-142.57;34.92;115900.28;5020550;28;20040;-92
2023/06/17 09:49:36;;;;;;;13.23;6.15;;;;;;;-142.57;33.71;115900.28;5021579;28;20021;-86
2023/06/17 09:52:05;;;;;;;14.75;6.70;;;;;;;-142.57;33.49;115900.28;5019409;28;20045;-85
2023/06/17 09:54:32;;;;;;;14.60;6.88;;;;;;;-142.57;34.37;115900.28;5016423;28;20038;-87
2023/06/17 09:57:01;;;;;;;9.80;7.07;;;;;;;-142.57;34.86;115900.28;5017276;28;20042;-87
2023/06/17 09:59:31;;;;;;;9.52;6.95;;;;;;;-142.57;34.95;115900.28;5046762;28;20064;-88
2023/06/17 10:01:57;;;;;;;10.88;7.05;;;;;;;-142.57;34.33;115900.28;5047452;28;20067;-87
2023/06/17 10:04:27;;;;;;;8.45;5.95;;;;;;;-142.57;35.09;115900.28;5045263;28;20041;-88
2023/06/17 10:07:02;;;;;;;10.65;6.15;;;;;;;-142.57;35.05;115900.28;5044965;28;20080;-86
2023/06/17 10:09:34;;;;;;;14.90;6.60;;;;;;;-142.57;34.45;115900.28;5045392;28;20105;-87
2023/06/17 10:12:14;;;;;;;12.52;5.43;;;;;;;-142.57;33.81;115900.28;5050888;28;20033;-84
2023/06/17 10:14:42;;;;;;;11.70;5.38;;;;;;;-142.57;33.91;115900.28;5049000;28;20092;-83
2023/06/17 10:17:09;;;;;;;7.85;5.80;;;;;;;-142.57;33.75;115900.28;5038650;28;20504;-89
2023/06/17 10:19:37;;;;;;;10.43;6.20;;;;;;;-142.57;33.81;115900.28;5035708;28;20063;-83
2023/06/17 10:22:11;;;;;;;13.73;6.53;;;;;;;-142.57;33.85;115900.28;5040681;28;20041;-88
2023/06/17 10:24:37;;;;;;;16.05;7.50;;;;;;;-142.57;34.00;115900.28;5040991;28;20048;-84
2023/06/17 10:27:05;;;;;;;12.40;7.22;;;;;;;-142.57;34.68;115900.28;5041901;28;20029;-88
2023/06/17 10:29:32;;;;;;;10.88;6.85;;;;;;;-142.57;34.04;115900.28;5044071;28;20041;-85
2023/06/17 10:32:27;;;;;;;9.60;6.97;;;;;;;-142.57;34.52;115900.28;5043812;28;20038;-85
2023/06/17 10:35:06;;;;;;;14.50;7.50;;;;;;;-142.57;35.14;115900.28;5041781;28;20044;-84
2023/06/17 10:38:06;;;;;;;13.20;7.40;;;;;;;-142.57;33.95;115900.28;5020416;28;20041;-88
2023/06/17 10:40:35;;;;;;;14.57;7.95;;;;;;;-142.57;33.70;115900.28;5032064;28;20111;-86
2023/06/17 10:43:01;;;;;;;16.27;5.88;;;;;;;-142.57;33.16;115900.28;5020389;28;20415;-86
2023/06/17 10:45:31;;;;;;;10.05;6.05;;;;;;;-142.57;33.78;115900.28;5016256;28;20052;-81
2023/06/17 10:48:13;;;;;;;10.13;7.03;;;;;;;-142.57;33.07;115900.28;5016243;28;20034;-84
2023/06/17 10:50:39;;;;;;;12.30;7.32;;;;;;;-142.57;33.09;115900.28;5016494;28;20044;-88
2023/06/17 10:53:05;;;;;;;14.85;6.35;;;;;;;-142.57;32.10;115900.28;5015870;28;20029;-88
2023/06/17 10:55:31;;;;;;;11.07;5.82;;;;;;;-142.57;32.11;115900.28;5018164;28;20026;-88
2023/06/17 10:57:57;;;;;;;19.58;5.38;;;;;;;-142.57;31.55;115900.28;5016716;28;20602;-87
2023/06/17 11:00:23;;;;;;;11.25;5.78;;;;;;;-142.57;32.11;115900.28;5025594;28;20042;-87
2023/06/17 11:02:48;;;;;;;9.77;4.55;;;;;;;-142.57;32.67;115900.28;5033516;28;20129;-88
2023/06/17 11:05:15;;;;;;;6.70;4.55;;;;;;;-142.57;31.72;115900.28;5012269;28;20033;-90
2023/06/17 11:07:41;;;;;;;7.38;5.25;;;;;;;-142.57;31.16;115900.28;5021850;28;20065;-87